Nasco Pearl — VRHS2 — position and weather

sailwx.info

Track history (hours):
 
Tides and Currents Weather Stations Pressure Air Temp Water Temp Dewpoint Dewpoint Depression Visibility Wind Speed Wind Dir Waves Ship Positions

Nasco Pearl

Last reported at 2015-Mar-04 13:20 UTC. Time now 2015-Mar-04 18:51 UTC.
Position N 39°54' E 119°36'.

Length 189 m; draft 12.9 m.

Type: Cargo ship. MMSI: 477982400.

Date/timePositionNaut miles runAvg speedWind from/ knotsBaromVisibWave heightAir tempDewpointWater temp
2015-Mar-04 13:20N 39°54' E 119°36'0 0.0
2015-Mar-04 11:20N 39°54' E 119°36'0 0.0
2015-Mar-04 10:26N 39°54' E 119°36'0 0.0
2015-Mar-04 09:32N 39°54' E 119°36'0 0.0
2015-Mar-04 08:32N 39°54' E 119°36'0 0.0
2015-Mar-04 07:32N 39°54' E 119°36'0 0.0
2015-Mar-04 06:32N 39°54' E 119°36'0 0.0
2015-Mar-04 05:32N 39°54' E 119°36'0 0.0
2015-Mar-04 04:32N 39°54' E 119°36'0 0.0
2015-Mar-04 03:32N 39°54' E 119°36'0 0.0
2015-Mar-04 02:26N 39°54' E 119°36'0 0.0
2015-Mar-04 01:32N 39°54' E 119°36'0 0.0
2015-Mar-04 00:32N 39°54' E 119°36'0 0.0
2015-Mar-03 23:32N 39°54' E 119°36'0 0.0
2015-Mar-03 22:26N 39°54' E 119°36'0 0.0
2015-Mar-03 21:32N 39°54' E 119°36'0 0.0
2015-Mar-03 20:32N 39°54' E 119°36'0 0.0
2015-Mar-03 19:32N 39°54' E 119°36'0 0.0
2015-Mar-03 18:08N 39°54' E 119°36'0 0.0
2015-Mar-03 17:32N 39°54' E 119°36'0 0.0
2015-Mar-03 16:32N 39°54' E 119°36'0 0.0
2015-Mar-03 15:08N 39°54' E 119°36'0 0.0
2015-Mar-03 14:32N 39°54' E 119°36'0 0.0
2015-Mar-03 13:32N 39°54' E 119°36'0 0.0
2015-Mar-03 12:20N 39°54' E 119°36'0 0.0
2015-Mar-03 11:32N 39°54' E 119°36'0 0.0
2015-Mar-03 10:26N 39°54' E 119°36'0 0.0
2015-Mar-03 09:32N 39°54' E 119°36'0 0.0
2015-Mar-03 08:20N 39°54' E 119°36'0 0.0
2015-Mar-03 07:32N 39°54' E 119°36'0 0.0
2015-Mar-03 06:32N 39°54' E 119°36'0 0.0
2015-Mar-03 05:20N 39°54' E 119°36'0 0.0
2015-Mar-03 04:26N 39°54' E 119°36'0 0.0
2015-Mar-03 03:32N 39°54' E 119°36'0 0.0
2015-Mar-03 02:32N 39°54' E 119°36'0 0.0
2015-Mar-03 01:32N 39°54' E 119°36'0 0.0
2015-Mar-03 00:32N 39°54' E 119°36'0 0.0
2015-Mar-02 23:32N 39°54' E 119°36'0 0.0
2015-Mar-02 22:32N 39°54' E 119°36'0 0.0
2015-Mar-02 21:32N 39°54' E 119°36'0 0.0
2015-Mar-02 20:26N 39°54' E 119°36'0 0.0
2015-Mar-02 19:32N 39°54' E 119°36'0 0.0
2015-Mar-02 18:32N 39°54' E 119°36'0 0.0
2015-Mar-02 17:26N 39°54' E 119°36'0 0.0
2015-Mar-02 16:32N 39°54' E 119°36'0 0.0
2015-Mar-02 15:26N 39°54' E 119°36'0 0.0
2015-Mar-02 14:32N 39°54' E 119°36'0 0.0
2015-Mar-02 13:32N 39°54' E 119°36'0 0.0
2015-Mar-02 12:32N 39°54' E 119°36'0 0.0
2015-Mar-02 11:32N 39°54' E 119°36'0 0.0
2015-Mar-02 10:32N 39°54' E 119°36'2 1.7
2015-Mar-02 09:33N 39°53' E 119°37'6 6.4
2015-Mar-02 08:33N 39°47' E 119°41'3 0.4
2015-Mar-01 23:32N 39°44' E 119°40'0 0.0
2015-Mar-01 21:14N 39°44' E 119°40'0 0.1
2015-Mar-01 20:20N 39°44' E 119°40'0 0.1
2015-Mar-01 19:08N 39°44' E 119°40'2 1.4
2015-Mar-01 17:27N 39°46' E 119°42'10 7.4
2015-Mar-01 16:09N 39°39' E 119°50'11111.4
2015-Mar-01 06:22N 38°21' E 121°31'  
2015-Feb-27 02:11N 29°11' E 122°38'39411.0
2015-Feb-25 14:33N 23°52' E 118°19'1612.6
2015-Feb-25 13:18N 23°42' E 118°06'  
Track history (hours):
 
Tides and Currents Weather Stations Pressure Air Temp Water Temp Dewpoint Dewpoint Depression Visibility Wind Speed Wind Dir Waves Ship Positions

Nasco Pearl

Last reported at 2015-Mar-04 13:20 UTC. Time now 2015-Mar-04 18:51 UTC.
Position N 39°54' E 119°36'.

Length 189 m; draft 12.9 m.

Type: Cargo ship. MMSI: 477982400.

Date/timePositionNaut miles runAvg speedWind from/ knotsBaromVisibWave heightAir tempDewpointWater temp
2015-Mar-04 13:20N 39°54' E 119°36'0 0.0
2015-Mar-04 11:20N 39°54' E 119°36'0 0.0
2015-Mar-04 10:26N 39°54' E 119°36'0 0.0
2015-Mar-04 09:32N 39°54' E 119°36'0 0.0
2015-Mar-04 08:32N 39°54' E 119°36'0 0.0
2015-Mar-04 07:32N 39°54' E 119°36'0 0.0
2015-Mar-04 06:32N 39°54' E 119°36'0 0.0
2015-Mar-04 05:32N 39°54' E 119°36'0 0.0
2015-Mar-04 04:32N 39°54' E 119°36'0 0.0
2015-Mar-04 03:32N 39°54' E 119°36'0 0.0
2015-Mar-04 02:26N 39°54' E 119°36'0 0.0
2015-Mar-04 01:32N 39°54' E 119°36'0 0.0
2015-Mar-04 00:32N 39°54' E 119°36'0 0.0
2015-Mar-03 23:32N 39°54' E 119°36'0 0.0
2015-Mar-03 22:26N 39°54' E 119°36'0 0.0
2015-Mar-03 21:32N 39°54' E 119°36'0 0.0
2015-Mar-03 20:32N 39°54' E 119°36'0 0.0
2015-Mar-03 19:32N 39°54' E 119°36'0 0.0
2015-Mar-03 18:08N 39°54' E 119°36'0 0.0
2015-Mar-03 17:32N 39°54' E 119°36'0 0.0
2015-Mar-03 16:32N 39°54' E 119°36'0 0.0
2015-Mar-03 15:08N 39°54' E 119°36'0 0.0
2015-Mar-03 14:32N 39°54' E 119°36'0 0.0
2015-Mar-03 13:32N 39°54' E 119°36'0 0.0
2015-Mar-03 12:20N 39°54' E 119°36'0 0.0
2015-Mar-03 11:32N 39°54' E 119°36'0 0.0
2015-Mar-03 10:26N 39°54' E 119°36'0 0.0
2015-Mar-03 09:32N 39°54' E 119°36'0 0.0
2015-Mar-03 08:20N 39°54' E 119°36'0 0.0
2015-Mar-03 07:32N 39°54' E 119°36'0 0.0
2015-Mar-03 06:32N 39°54' E 119°36'0 0.0
2015-Mar-03 05:20N 39°54' E 119°36'0 0.0
2015-Mar-03 04:26N 39°54' E 119°36'0 0.0
2015-Mar-03 03:32N 39°54' E 119°36'0 0.0
2015-Mar-03 02:32N 39°54' E 119°36'0 0.0
2015-Mar-03 01:32N 39°54' E 119°36'0 0.0
2015-Mar-03 00:32N 39°54' E 119°36'0 0.0
2015-Mar-02 23:32N 39°54' E 119°36'0 0.0
2015-Mar-02 22:32N 39°54' E 119°36'0 0.0
2015-Mar-02 21:32N 39°54' E 119°36'0 0.0
2015-Mar-02 20:26N 39°54' E 119°36'0 0.0
2015-Mar-02 19:32N 39°54' E 119°36'0 0.0
2015-Mar-02 18:32N 39°54' E 119°36'0 0.0
2015-Mar-02 17:26N 39°54' E 119°36'0 0.0
2015-Mar-02 16:32N 39°54' E 119°36'0 0.0
2015-Mar-02 15:26N 39°54' E 119°36'0 0.0
2015-Mar-02 14:32N 39°54' E 119°36'0 0.0
2015-Mar-02 13:32N 39°54' E 119°36'0 0.0
2015-Mar-02 12:32N 39°54' E 119°36'0 0.0
2015-Mar-02 11:32N 39°54' E 119°36'0 0.0
2015-Mar-02 10:32N 39°54' E 119°36'2 1.7
2015-Mar-02 09:33N 39°53' E 119°37'6 6.4
2015-Mar-02 08:33N 39°47' E 119°41'3 0.4
2015-Mar-01 23:32N 39°44' E 119°40'0 0.0
2015-Mar-01 21:14N 39°44' E 119°40'0 0.1
2015-Mar-01 20:20N 39°44' E 119°40'0 0.1
2015-Mar-01 19:08N 39°44' E 119°40'2 1.4
2015-Mar-01 17:27N 39°46' E 119°42'10 7.4
2015-Mar-01 16:09N 39°39' E 119°50'11111.4
2015-Mar-01 06:22N 38°21' E 121°31'  
2015-Feb-27 02:11N 29°11' E 122°38'39411.0
2015-Feb-25 14:33N 23°52' E 118°19'1612.6
2015-Feb-25 13:18N 23°42' E 118°06'  

Dump ship's entire track history